Time;durP1;ratioP1;P1;durP2;ratioP2;P2;SDS_P1;SDS_P2;PMS_P1;PMS_P2;Temp;Humidity;BMP_temperature;BMP_pressure;BME280_temperature;BME280_humidity;BME280_pressure;Samples;Min_cycle;Max_cycle;Signal;HPM_P1;HPM_P2
2022/11/18 00:01:46;;;;;;;1.23;1.07;;;;;;;13.78;56.03;94080.88;4943045;28;20460;-65
2022/11/18 00:04:14;;;;;;;0.67;0.47;;;;;;;13.69;55.65;94082.66;4932052;29;20448;-65
2022/11/18 00:06:40;;;;;;;1.40;1.30;;;;;;;13.83;55.46;94083.44;4932103;29;21219;-63
2022/11/18 00:09:07;;;;;;;0.40;0.40;;;;;;;13.28;58.41;94077.41;4945906;29;20447;-65
2022/11/18 00:14:26;;;;;;;0.80;0.80;;;;;;;13.67;56.44;94079.53;4937438;28;21010;-65
2022/11/18 00:16:54;;;;;;;0.30;0.30;;;;;;;13.56;55.81;94093.94;4951452;28;20541;-64
2022/11/18 00:19:31;;;;;;;0.90;0.63;;;;;;;13.18;56.57;94091.50;4950820;28;21192;-62
2022/11/18 00:22:00;;;;;;;2.80;1.53;;;;;;;13.51;56.37;94088.78;4951073;28;20451;-64
2022/11/18 00:24:27;;;;;;;2.90;2.60;;;;;;;13.14;56.86;94082.63;4951260;28;20460;-66
2022/11/18 00:26:54;;;;;;;1.53;1.13;;;;;;;13.31;57.42;94089.16;4951023;28;20471;-66
2022/11/18 00:29:22;;;;;;;3.97;2.63;;;;;;;13.31;57.56;94078.66;4949627;28;20526;-66
2022/11/18 00:31:49;;;;;;;1.50;1.40;;;;;;;13.49;56.99;94083.03;4932737;29;20452;-65
2022/11/18 00:34:17;;;;;;;1.80;1.47;;;;;;;13.47;56.67;94082.53;4931870;29;20483;-65
2022/11/18 00:36:45;;;;;;;4.47;1.53;;;;;;;13.42;56.72;94087.91;4935077;29;20546;-65
2022/11/18 00:39:14;;;;;;;1.37;1.10;;;;;;;13.30;55.80;94096.31;4951069;28;20533;-66
2022/11/18 00:44:27;;;;;;;0.77;0.77;;;;;;;13.30;55.47;94079.72;4940201;28;20460;-63
2022/11/18 00:46:54;;;;;;;2.73;2.20;;;;;;;13.17;55.23;94086.53;4947855;29;20489;-64
2022/11/18 00:49:21;;;;;;;2.93;1.67;;;;;;;13.18;55.44;94083.63;4950746;28;20459;-63
2022/11/18 00:51:48;;;;;;;2.73;1.43;;;;;;;13.05;55.27;94079.13;4935649;28;20540;-64
2022/11/18 00:54:15;;;;;;;1.93;1.10;;;;;;;13.06;55.14;94080.66;4945000;29;21078;-66
2022/11/18 00:56:42;;;;;;;2.43;1.93;;;;;;;12.99;55.21;94090.75;4931555;29;21203;-63
2022/11/18 00:59:08;;;;;;;0.60;0.60;;;;;;;12.84;55.82;94087.59;4944843;28;20998;-63
2022/11/18 01:01:35;;;;;;;1.33;1.20;;;;;;;12.66;56.10;94086.59;4931624;29;20451;-62
2022/11/18 01:04:03;;;;;;;2.90;2.13;;;;;;;12.85;56.11;94074.16;4931759;29;20841;-67
2022/11/18 01:06:29;;;;;;;1.23;1.13;;;;;;;12.64;56.46;94075.59;4950654;28;20466;-65
2022/11/18 01:08:56;;;;;;;2.47;1.90;;;;;;;12.69;55.62;94075.50;4938510;28;20526;-63
2022/11/18 01:14:09;;;;;;;2.10;1.90;;;;;;;12.44;55.78;94073.28;4954935;28;20512;-66
2022/11/18 01:16:35;;;;;;;1.63;1.53;;;;;;;12.28;56.38;94084.28;4948594;28;20476;-64
2022/11/18 01:19:02;;;;;;;11.53;3.40;;;;;;;12.17;56.29;94088.91;4946989;29;20454;-61
2022/11/18 01:21:30;;;;;;;15.60;3.37;;;;;;;12.41;55.71;94081.72;4954122;28;20475;-64
2022/11/18 01:23:56;;;;;;;4.10;3.00;;;;;;;12.09;55.89;94066.69;4944632;28;20476;-63
2022/11/18 01:26:23;;;;;;;3.10;2.90;;;;;;;12.12;55.86;94089.75;4950941;29;20447;-66
2022/11/18 01:28:55;;;;;;;4.17;3.53;;;;;;;11.86;56.48;94082.50;4946220;28;20540;-65
2022/11/18 01:31:23;;;;;;;4.40;4.00;;;;;;;11.64;57.55;94095.34;4935829;29;20455;-61
2022/11/18 01:33:49;;;;;;;8.37;4.63;;;;;;;11.67;57.03;94092.19;4946528;28;21045;-65
2022/11/18 01:36:25;;;;;;;6.07;4.87;;;;;;;11.58;57.53;94091.22;4948510;29;20439;-65
2022/11/18 01:38:52;;;;;;;9.63;6.60;;;;;;;11.51;57.33;94080.28;4946809;29;20459;-65
2022/11/18 01:41:21;;;;;;;5.33;4.40;;;;;;;11.81;57.04;94090.44;4934677;29;21171;-65
2022/11/18 01:43:55;;;;;;;10.43;4.93;;;;;;;11.87;56.57;94091.94;4939888;28;20458;-64
2022/11/18 01:46:25;;;;;;;7.63;4.03;;;;;;;11.91;56.62;94090.31;4953647;28;20550;-63
2022/11/18 01:48:58;;;;;;;2.93;2.67;;;;;;;12.01;56.77;94090.16;4953815;28;20974;-65
2022/11/18 01:51:43;;;;;;;7.03;4.40;;;;;;;11.56;58.13;94093.34;4943311;28;20795;-63
2022/11/18 01:54:19;;;;;;;10.10;4.07;;;;;;;11.99;57.32;94087.03;4947588;28;21093;-65
2022/11/18 01:56:51;;;;;;;13.47;5.27;;;;;;;11.69;58.15;94095.31;4944307;28;20506;-64
2022/11/18 01:59:25;;;;;;;6.17;4.97;;;;;;;11.72;57.99;94086.88;4953157;28;20454;-64
2022/11/18 02:01:54;;;;;;;7.20;4.87;;;;;;;11.97;57.13;94089.19;4953697;28;20543;-63
2022/11/18 02:04:26;;;;;;;7.43;5.97;;;;;;;11.45;59.68;94086.63;4953709;28;20484;-65
2022/11/18 02:06:54;;;;;;;3.57;3.27;;;;;;;11.50;59.51;94074.25;4953557;28;20448;-65
2022/11/18 02:09:21;;;;;;;6.70;5.33;;;;;;;11.82;59.18;94086.75;4953157;29;20482;-65
2022/11/18 02:11:53;;;;;;;7.17;4.93;;;;;;;11.54;59.89;94092.81;4954160;28;20454;-66
2022/11/18 02:14:26;;;;;;;8.30;6.77;;;;;;;11.53;60.16;94088.66;4962286;28;20499;-65
2022/11/18 02:17:17;;;;;;;8.87;5.83;;;;;;;12.01;58.63;94077.81;4947988;28;20567;-66
2022/11/18 02:19:47;;;;;;;8.17;3.40;;;;;;;11.91;59.35;94090.31;4934384;29;20456;-65
2022/11/18 02:22:25;;;;;;;6.43;4.70;;;;;;;11.66;60.01;94082.75;4953075;28;20761;-67
2022/11/18 02:25:14;;;;;;;5.87;4.63;;;;;;;11.47;61.45;94089.75;4953326;28;20470;-63
2022/11/18 02:27:56;;;;;;;7.20;4.40;;;;;;;11.58;61.12;94092.00;4952945;29;20840;-68
2022/11/18 02:30:23;;;;;;;3.63;2.80;;;;;;;11.87;60.58;94089.31;4939257;28;20447;-65
2022/11/18 02:32:55;;;;;;;6.90;3.63;;;;;;;11.97;60.62;94083.94;4942960;28;20879;-66
2022/11/18 02:35:30;;;;;;;3.77;1.73;;;;;;;11.24;62.55;94092.09;4933709;29;20870;-65
2022/11/18 02:38:27;;;;;;;4.73;2.30;;;;;;;11.21;63.05;94092.66;4951425;29;20486;-60
2022/11/18 02:41:01;;;;;;;2.43;2.00;;;;;;;11.26;63.74;94077.94;4948176;28;20543;-67
2022/11/18 02:43:32;;;;;;;7.63;4.72;;;;;;;11.53;62.62;94088.66;4933820;29;20547;-66
2022/11/18 02:46:05;;;;;;;2.83;2.63;;;;;;;11.74;61.77;94079.50;4945668;29;20241;-61
2022/11/18 02:48:37;;;;;;;9.43;3.77;;;;;;;11.16;63.24;94082.25;4946837;28;20447;-62
2022/11/18 02:51:08;;;;;;;2.23;1.50;;;;;;;11.53;62.17;94083.41;4933761;28;20453;-66
2022/11/18 02:53:39;;;;;;;3.50;3.20;;;;;;;11.76;61.50;94077.38;4933158;29;21018;-62
2022/11/18 02:56:08;;;;;;;8.40;3.27;;;;;;;11.64;61.81;94085.59;4946906;29;20444;-63
2022/11/18 02:58:34;;;;;;;6.83;3.60;;;;;;;11.65;60.91;94073.31;4944119;29;20455;-64
2022/11/18 03:01:01;;;;;;;4.17;3.77;;;;;;;11.85;60.01;94080.94;4949059;28;20524;-66
2022/11/18 03:03:33;;;;;;;1.63;1.53;;;;;;;11.87;60.00;94084.06;4942360;29;20994;-62
2022/11/18 03:06:27;;;;;;;2.40;2.30;;;;;;;11.96;59.77;94083.16;4952218;28;20447;-65
2022/11/18 03:09:01;;;;;;;2.43;2.00;;;;;;;11.98;59.58;94098.63;4939931;28;20444;-62
2022/11/18 03:11:32;;;;;;;7.83;5.23;;;;;;;12.07;59.62;94105.56;4946589;29;20447;-63
2022/11/18 03:14:23;;;;;;;2.87;2.67;;;;;;;11.82;60.28;94092.00;4944529;29;20566;-65
2022/11/18 03:17:02;;;;;;;3.43;3.10;;;;;;;11.84;60.35;94089.88;4940496;29;21034;-63
2022/11/18 03:19:42;;;;;;;4.63;4.03;;;;;;;12.01;59.58;94087.53;4952126;29;20493;-67
2022/11/18 03:22:22;;;;;;;2.47;2.27;;;;;;;10.88;63.37;94090.09;4943486;28;20460;-66
2022/11/18 03:25:21;;;;;;;2.27;2.13;;;;;;;11.47;61.65;94079.28;4946793;28;20456;-65
2022/11/18 03:27:51;;;;;;;1.00;1.00;;;;;;;11.69;60.29;94092.69;4934609;28;20468;-64
2022/11/18 03:30:20;;;;;;;2.43;2.23;;;;;;;11.92;59.40;94081.34;4945719;28;20444;-66
2022/11/18 03:32:56;;;;;;;8.47;3.90;;;;;;;11.90;58.84;94063.28;4944675;28;20444;-67
2022/11/18 03:35:27;;;;;;;3.10;2.30;;;;;;;11.77;59.54;94084.19;4953060;28;20494;-64
2022/11/18 03:38:06;;;;;;;4.30;2.33;;;;;;;11.75;60.02;94075.81;4952065;28;20477;-62
2022/11/18 03:40:37;;;;;;;6.35;3.80;;;;;;;11.33;61.67;94067.91;4939598;29;20450;-63
2022/11/18 03:43:20;;;;;;;2.40;2.20;;;;;;;11.63;60.47;94078.03;4938419;28;20652;-63
2022/11/18 03:46:22;;;;;;;7.90;2.60;;;;;;;11.56;60.88;94082.84;4951808;28;20779;-67
2022/11/18 03:48:52;;;;;;;2.43;2.03;;;;;;;11.78;60.73;94083.13;4937972;28;20518;-65
2022/11/18 03:51:25;;;;;;;2.77;2.57;;;;;;;11.45;61.29;94081.38;4941723;28;20461;-63
2022/11/18 03:53:59;;;;;;;3.37;3.07;;;;;;;11.86;60.16;94064.88;4945850;29;20462;-66
2022/11/18 03:56:36;;;;;;;3.53;3.23;;;;;;;12.09;59.75;94060.66;4939900;29;20451;-62
2022/11/18 03:59:10;;;;;;;6.20;4.20;;;;;;;11.84;59.76;94063.63;4937631;28;20444;-65
2022/11/18 04:01:53;;;;;;;6.17;5.57;;;;;;;11.38;60.79;94075.72;4951717;28;20461;-66
2022/11/18 04:04:23;;;;;;;4.67;3.87;;;;;;;11.55;61.27;94060.31;4938007;28;20510;-63
2022/11/18 04:07:07;;;;;;;2.60;2.20;;;;;;;12.11;59.95;94063.78;4952012;29;20500;-64
2022/11/18 04:09:42;;;;;;;8.47;4.10;;;;;;;11.92;60.20;94069.03;4951271;28;20498;-66
2022/11/18 04:12:14;;;;;;;4.97;4.27;;;;;;;12.22;59.45;94059.94;4940622;28;20825;-62
2022/11/18 04:14:43;;;;;;;2.30;2.17;;;;;;;11.59;60.93;94077.03;4949470;29;20481;-64
2022/11/18 04:17:12;;;;;;;8.50;7.10;;;;;;;11.96;60.26;94061.34;4941540;28;20945;-65
2022/11/18 04:19:40;;;;;;;4.70;4.30;;;;;;;12.05;60.35;94072.78;4950085;29;20455;-68
2022/11/18 04:22:09;;;;;;;4.80;3.77;;;;;;;11.33;62.40;94083.63;4942400;28;20500;-66
2022/11/18 04:24:36;;;;;;;3.47;2.23;;;;;;;11.99;60.80;94066.03;4946964;28;20550;-63
2022/11/18 04:27:03;;;;;;;12.37;6.93;;;;;;;12.27;60.06;94083.50;4951814;28;20486;-62
2022/11/18 04:29:31;;;;;;;2.53;2.23;;;;;;;12.26;59.49;94079.31;4950976;28;20455;-62
2022/11/18 04:32:00;;;;;;;2.83;2.53;;;;;;;12.08;60.19;94077.44;4947143;29;20448;-64
2022/11/18 04:34:27;;;;;;;4.70;3.53;;;;;;;11.61;61.60;94083.56;4943845;28;20511;-64
2022/11/18 04:36:54;;;;;;;1.17;1.17;;;;;;;12.16;60.46;94074.22;4932516;28;20806;-63
2022/11/18 04:39:20;;;;;;;0.90;0.90;;;;;;;12.22;59.70;94080.94;4942079;28;20443;-65
2022/11/18 04:41:57;;;;;;;1.23;1.13;;;;;;;11.91;60.55;94085.84;4937750;28;20444;-66
2022/11/18 04:44:26;;;;;;;0.40;0.40;;;;;;;12.03;60.85;94095.91;4950669;28;21030;-63
2022/11/18 04:46:55;;;;;;;6.47;2.53;;;;;;;11.94;60.56;94095.78;4937126;28;20511;-64
2022/11/18 04:49:23;;;;;;;2.10;1.43;;;;;;;12.11;60.31;94095.28;4950634;28;20498;-66
2022/11/18 04:51:50;;;;;;;1.17;0.77;;;;;;;11.97;60.73;94094.44;4935697;28;20467;-64
2022/11/18 04:54:18;;;;;;;1.77;0.97;;;;;;;11.91;60.77;94095.56;4945126;29;20559;-67
2022/11/18 04:56:46;;;;;;;2.00;1.80;;;;;;;12.35;59.64;94096.00;4941508;28;21018;-65
2022/11/18 04:59:21;;;;;;;3.60;0.87;;;;;;;12.02;60.29;94083.88;4947598;28;20943;-62
2022/11/18 05:01:49;;;;;;;0.80;0.80;;;;;;;11.32;65.84;94089.94;4931432;29;20482;-64
2022/11/18 05:04:19;;;;;;;1.30;0.83;;;;;;;12.18;61.64;94096.50;4936509;29;20983;-64
2022/11/18 05:06:46;;;;;;;0.47;0.47;;;;;;;11.55;64.10;94081.28;4944656;29;20842;-66
2022/11/18 05:09:14;;;;;;;6.00;1.77;;;;;;;11.95;62.11;94096.56;4950649;28;20453;-65
2022/11/18 05:14:29;;;;;;;1.80;1.70;;;;;;;12.06;62.99;94087.50;4934858;28;20569;-66
2022/11/18 05:16:57;;;;;;;0.53;0.53;;;;;;;12.11;61.91;94084.78;4931748;29;20535;-61
2022/11/18 05:19:24;;;;;;;0.67;0.47;;;;;;;12.08;61.86;94093.22;4931242;29;20535;-66
2022/11/18 05:21:51;;;;;;;2.20;2.00;;;;;;;11.89;62.07;94092.44;4938192;28;20487;-68
2022/11/18 05:24:18;;;;;;;0.53;0.53;;;;;;;11.79;62.72;94109.09;4936295;28;20435;-69
2022/11/18 05:26:45;;;;;;;1.37;1.27;;;;;;;11.47;63.66;94106.28;4941430;28;20467;-65
2022/11/18 05:29:12;;;;;;;0.53;0.43;;;;;;;11.86;62.74;94103.50;4944129;29;21239;-64
2022/11/18 05:31:39;;;;;;;2.40;2.20;;;;;;;12.04;61.40;94100.88;4930703;28;20964;-65
2022/11/18 05:34:06;;;;;;;1.00;1.00;;;;;;;11.99;61.69;94092.28;4949171;29;20475;-69
2022/11/18 05:36:32;;;;;;;4.00;2.47;;;;;;;12.10;61.32;94109.47;4938414;28;20487;-64
2022/11/18 05:39:00;;;;;;;0.87;0.87;;;;;;;12.17;61.71;94104.66;4944508;29;20448;-63
2022/11/18 05:44:13;;;;;;;3.00;1.70;;;;;;;12.16;61.90;94109.13;4949559;29;20458;-69
2022/11/18 05:46:39;;;;;;;0.60;0.60;;;;;;;12.70;60.62;94103.31;4955069;28;20479;-66
2022/11/18 05:49:06;;;;;;;1.07;1.07;;;;;;;12.62;59.87;94105.84;4944147;28;20464;-63
2022/11/18 05:51:34;;;;;;;4.47;2.80;;;;;;;12.27;61.67;94104.50;4938282;28;20538;-64
2022/11/18 05:54:07;;;;;;;0.20;0.20;;;;;;;12.67;60.33;94097.88;4935239;29;20804;-64
2022/11/18 05:56:37;;;;;;;0.43;0.43;;;;;;;12.41;60.83;94089.59;4932362;29;20551;-65
2022/11/18 05:59:04;;;;;;;0.90;0.90;;;;;;;12.44;60.98;94089.03;4934225;29;20448;-63
2022/11/18 06:01:44;;;;;;;1.70;1.23;;;;;;;12.45;61.27;94101.09;4945677;28;20515;-65
2022/11/18 06:04:26;;;;;;;1.00;0.97;;;;;;;12.68;60.21;94099.44;4946804;28;20949;-65
2022/11/18 06:06:58;;;;;;;0.53;0.53;;;;;;;12.51;61.62;94094.72;4944580;28;20530;-65
2022/11/18 06:09:29;;;;;;;0.40;0.40;;;;;;;12.64;61.33;94093.19;4949220;28;20458;-66
2022/11/18 06:11:59;;;;;;;0.83;0.83;;;;;;;12.60;61.23;94100.88;4945614;28;20446;-66
2022/11/18 06:14:36;;;;;;;0.33;0.33;;;;;;;12.79;60.90;94093.72;4948415;29;20455;-66
2022/11/18 06:17:08;;;;;;;1.07;1.03;;;;;;;11.99;63.02;94098.31;4953306;28;20447;-67
2022/11/18 06:19:35;;;;;;;1.17;0.97;;;;;;;11.98;64.61;94101.25;4951624;28;20459;-64
2022/11/18 06:22:03;;;;;;;1.87;1.70;;;;;;;12.49;62.35;94090.78;4941832;29;20514;-67
2022/11/18 06:24:31;;;;;;;0.90;0.90;;;;;;;12.27;62.88;94094.00;4953265;28;20510;-68
2022/11/18 06:26:58;;;;;;;2.57;1.67;;;;;;;12.78;61.44;94094.78;4946870;28;20448;-66
2022/11/18 06:29:26;;;;;;;0.33;0.33;;;;;;;12.68;61.76;94084.44;4933896;29;20539;-63
2022/11/18 06:31:54;;;;;;;1.03;0.87;;;;;;;12.01;64.31;94103.28;4934100;29;20460;-65
2022/11/18 06:34:20;;;;;;;0.73;0.73;;;;;;;12.42;63.22;94088.53;4938758;29;20444;-72
2022/11/18 06:36:47;;;;;;;0.10;0.10;;;;;;;12.54;63.03;94083.63;4941340;28;21013;-69
2022/11/18 06:39:14;;;;;;;1.10;1.10;;;;;;;12.87;61.84;94077.28;4933723;28;20531;-64
2022/11/18 06:41:41;;;;;;;2.90;0.63;;;;;;;12.74;61.74;94062.25;4947081;29;20447;-64
2022/11/18 06:44:12;;;;;;;0.80;0.57;;;;;;;13.06;61.44;94080.66;4942352;29;21122;-63
2022/11/18 06:46:54;;;;;;;1.00;1.00;;;;;;;13.07;61.48;94070.94;4952627;28;20586;-66
2022/11/18 06:49:23;;;;;;;4.17;0.90;;;;;;;13.14;62.32;94087.09;4943839;28;20482;-63
2022/11/18 06:51:50;;;;;;;3.73;2.47;;;;;;;13.04;62.94;94077.56;4935129;29;21025;-66
2022/11/18 06:54:18;;;;;;;5.37;2.77;;;;;;;13.23;61.20;94095.13;4947003;29;20444;-64
2022/11/18 06:56:45;;;;;;;2.17;1.47;;;;;;;12.97;62.56;94087.63;4943662;29;20547;-65
2022/11/18 06:59:13;;;;;;;2.13;1.77;;;;;;;12.72;63.82;94087.25;4950111;28;20460;-66
2022/11/18 07:01:40;;;;;;;0.40;0.40;;;;;;;12.95;63.30;94089.78;4942252;28;20467;-66
2022/11/18 07:04:08;;;;;;;0.60;0.60;;;;;;;13.07;61.92;94086.72;4951442;28;20546;-65
2022/11/18 07:06:35;;;;;;;3.10;2.00;;;;;;;12.79;63.47;94096.34;4940460;28;20971;-66
2022/11/18 07:09:05;;;;;;;1.60;1.50;;;;;;;13.03;63.23;94073.34;4939233;28;20978;-65
2022/11/18 07:11:33;;;;;;;5.90;3.10;;;;;;;12.90;61.74;94089.84;4939114;29;20502;-64
2022/11/18 07:14:00;;;;;;;1.10;1.07;;;;;;;12.85;61.93;94083.91;4940538;28;20547;-65
2022/11/18 07:16:27;;;;;;;1.37;1.27;;;;;;;13.23;61.06;94086.16;4937311;28;20677;-66
2022/11/18 07:18:54;;;;;;;0.50;0.50;;;;;;;13.11;61.77;94080.59;4941821;28;20516;-64
2022/11/18 07:21:26;;;;;;;1.60;0.80;;;;;;;13.18;61.33;94072.31;4946370;29;20454;-65
2022/11/18 07:23:54;;;;;;;0.10;0.10;;;;;;;13.05;61.67;94065.97;4942586;29;20455;-64
2022/11/18 07:26:22;;;;;;;0.40;0.40;;;;;;;13.29;61.26;94054.47;4938849;28;20460;-64
2022/11/18 07:28:49;;;;;;;0.77;0.77;;;;;;;13.23;61.32;94038.00;4943933;28;20511;-66
2022/11/18 07:31:18;;;;;;;9.53;2.37;;;;;;;13.41;61.82;94075.84;4946223;28;20499;-65
2022/11/18 07:33:46;;;;;;;2.10;1.90;;;;;;;13.37;61.24;94059.84;4939688;29;20446;-65
2022/11/18 07:36:19;;;;;;;2.37;2.17;;;;;;;13.27;61.49;94072.41;4952249;28;20517;-68
2022/11/18 07:38:46;;;;;;;2.77;1.50;;;;;;;13.44;61.60;94049.72;4946048;28;20520;-65
2022/11/18 07:41:18;;;;;;;3.90;2.53;;;;;;;13.45;61.58;94042.63;4945033;28;20455;-66
2022/11/18 07:43:46;;;;;;;1.00;0.93;;;;;;;12.98;62.39;94056.84;4946632;28;20488;-66
2022/11/18 07:46:27;;;;;;;1.43;1.33;;;;;;;13.49;61.39;94057.50;4943993;29;20897;-65
2022/11/18 07:48:57;;;;;;;0.57;0.57;;;;;;;12.93;62.90;94049.84;4938102;28;20483;-65
2022/11/18 07:51:29;;;;;;;2.13;1.53;;;;;;;13.31;62.25;94065.50;4939635;29;21017;-64
2022/11/18 07:53:56;;;;;;;0.40;0.40;;;;;;;13.39;61.71;94064.81;4947278;28;20439;-64
2022/11/18 07:56:23;;;;;;;2.80;1.67;;;;;;;13.41;61.31;94060.06;4944522;28;21085;-69
2022/11/18 07:58:54;;;;;;;0.83;0.80;;;;;;;13.27;61.31;94060.03;4945275;28;20530;-64
2022/11/18 08:01:24;;;;;;;2.00;1.50;;;;;;;13.21;61.57;94064.59;4945494;28;21244;-64
2022/11/18 08:03:51;;;;;;;1.10;1.07;;;;;;;13.39;60.93;94080.63;4944510;29;20510;-64
2022/11/18 08:06:19;;;;;;;4.43;2.43;;;;;;;13.21;61.59;94093.53;4951317;28;20447;-66
2022/11/18 08:08:46;;;;;;;2.47;1.73;;;;;;;13.42;60.57;94088.69;4940705;28;20976;-67
2022/11/18 08:11:16;;;;;;;5.57;2.40;;;;;;;13.59;60.46;94082.84;4945609;28;20871;-67
2022/11/18 08:13:50;;;;;;;7.73;1.70;;;;;;;13.47;61.18;94090.44;4942723;29;20443;-68
2022/11/18 08:16:20;;;;;;;0.20;0.20;;;;;;;13.59;60.40;94090.75;4951494;28;20590;-66
2022/11/18 08:18:48;;;;;;;4.93;2.37;;;;;;;13.65;60.38;94105.38;4951058;28;20491;-68
2022/11/18 08:21:18;;;;;;;1.43;1.20;;;;;;;13.25;61.41;94092.97;4935845;28;20551;-67
2022/11/18 08:23:52;;;;;;;0.60;0.60;;;;;;;12.66;64.12;94076.09;4932413;28;20440;-65
2022/11/18 08:26:20;;;;;;;1.17;1.17;;;;;;;13.46;61.68;94078.38;4947064;29;20443;-65
2022/11/18 08:28:46;;;;;;;1.17;1.07;;;;;;;13.44;62.56;94080.50;4943430;28;20441;-66
2022/11/18 08:31:17;;;;;;;1.00;0.97;;;;;;;13.95;61.72;94062.63;4945836;29;20523;-64
2022/11/18 08:33:45;;;;;;;0.30;0.30;;;;;;;14.09;61.03;94050.19;4951741;28;20466;-66
2022/11/18 08:36:17;;;;;;;4.93;1.87;;;;;;;14.15;61.03;94056.91;4950927;28;20495;-65
2022/11/18 08:38:44;;;;;;;1.47;1.40;;;;;;;14.20;60.46;94062.06;4951255;28;20452;-64
2022/11/18 08:41:39;;;;;;;6.70;3.80;;;;;;;14.17;61.03;94036.34;4951088;28;20912;-67
2022/11/18 08:44:10;;;;;;;1.03;0.80;;;;;;;13.95;60.79;94028.38;4940395;28;20531;-66
2022/11/18 08:46:37;;;;;;;0.67;0.67;;;;;;;13.97;61.21;94031.50;4937795;28;20999;-64
2022/11/18 08:49:04;;;;;;;1.20;1.13;;;;;;;14.08;62.11;94011.78;4951716;28;20455;-62
2022/11/18 08:51:31;;;;;;;5.30;3.03;;;;;;;14.01;62.73;94027.97;4935332;29;20851;-65
2022/11/18 08:53:58;;;;;;;1.17;1.17;;;;;;;14.43;60.89;94015.47;4932860;29;20444;-64
2022/11/18 08:56:25;;;;;;;1.23;1.00;;;;;;;14.37;60.84;94014.81;4939670;29;20476;-67
2022/11/18 08:58:52;;;;;;;0.90;0.90;;;;;;;14.14;60.71;94000.06;4951013;28;20467;-68
2022/11/18 09:01:19;;;;;;;3.43;3.10;;;;;;;14.23;60.37;93987.72;4945445;28;20543;-65
2022/11/18 09:03:46;;;;;;;1.97;1.80;;;;;;;14.35;60.10;93980.06;4943288;29;20955;-67
2022/11/18 09:06:18;;;;;;;2.43;1.90;;;;;;;14.34;60.25;93975.91;4937158;28;20874;-62
2022/11/18 09:08:45;;;;;;;1.50;1.40;;;;;;;14.24;60.56;93963.72;4950463;28;20479;-66
2022/11/18 09:11:20;;;;;;;3.70;1.13;;;;;;;14.34;60.17;93968.00;4950475;28;20490;-62
2022/11/18 09:13:51;;;;;;;3.23;2.43;;;;;;;14.28;60.65;93961.28;4950888;28;20552;-67
2022/11/18 09:16:38;;;;;;;1.17;0.83;;;;;;;13.70;62.28;93957.84;4937437;29;20483;-64
2022/11/18 09:19:05;;;;;;;3.43;1.80;;;;;;;13.82;62.41;93992.34;4938834;28;20870;-65
2022/11/18 09:21:52;;;;;;;3.10;2.07;;;;;;;13.73;61.98;93967.78;4938622;29;20501;-63
2022/11/18 09:24:19;;;;;;;3.53;3.27;;;;;;;13.51;63.18;93955.38;4938198;29;20503;-66
2022/11/18 09:26:47;;;;;;;5.10;3.13;;;;;;;13.51;63.04;93965.09;4936850;28;20494;-65
2022/11/18 09:29:13;;;;;;;2.63;2.27;;;;;;;13.72;62.14;93955.72;4950569;28;20447;-65
2022/11/18 09:31:40;;;;;;;6.20;1.83;;;;;;;13.42;63.65;93948.44;4948819;28;20432;-63
2022/11/18 09:34:09;;;;;;;2.10;1.80;;;;;;;13.28;64.64;93976.66;4940599;28;20823;-65
2022/11/18 09:36:36;;;;;;;0.73;0.73;;;;;;;13.56;63.44;93967.63;4935134;29;20475;-66
2022/11/18 09:39:03;;;;;;;3.23;2.93;;;;;;;13.80;62.58;93957.63;4943595;29;20535;-65
2022/11/18 09:41:44;;;;;;;1.17;1.07;;;;;;;13.59;63.45;93946.78;4940752;28;20479;-68
2022/11/18 09:44:29;;;;;;;3.63;3.30;;;;;;;14.01;62.12;93932.41;4953739;28;20811;-65
2022/11/18 09:47:05;;;;;;;3.50;2.00;;;;;;;13.72;62.78;93945.19;4953901;29;20935;-68
2022/11/18 09:49:41;;;;;;;3.40;3.10;;;;;;;13.70;62.85;93915.75;4953872;28;20446;-65
2022/11/18 09:52:11;;;;;;;5.83;3.13;;;;;;;13.64;63.23;93893.22;4936238;28;20499;-64
2022/11/18 09:54:39;;;;;;;11.10;2.57;;;;;;;13.58;63.33;93903.09;4947025;28;21031;-67
2022/11/18 09:57:40;;;;;;;4.07;3.37;;;;;;;13.79;62.71;93909.47;4947569;28;20493;-67
2022/11/18 10:00:16;;;;;;;3.77;2.53;;;;;;;14.14;62.73;93899.94;4944844;28;20475;-65
2022/11/18 10:03:08;;;;;;;3.27;2.27;;;;;;;14.46;61.70;93870.69;4951485;28;20865;-64
2022/11/18 10:05:52;;;;;;;0.73;0.73;;;;;;;14.87;61.55;93897.50;4941275;28;20451;-68
2022/11/18 10:08:37;;;;;;;1.13;1.10;;;;;;;15.22;60.82;93893.88;4941985;29;20492;-68
2022/11/18 10:11:23;;;;;;;2.07;1.83;;;;;;;15.06;61.33;93891.97;4938027;29;20454;-65
2022/11/18 10:14:16;;;;;;;16.43;4.17;;;;;;;15.27;60.71;93889.56;4945153;29;20451;-62
2022/11/18 10:16:57;;;;;;;3.90;2.70;;;;;;;15.18;61.27;93908.78;4934831;28;20472;-65
2022/11/18 10:19:37;;;;;;;5.53;3.27;;;;;;;15.51;59.14;93911.06;4948487;28;21066;-64
2022/11/18 10:22:25;;;;;;;2.13;1.87;;;;;;;15.07;60.62;93896.94;4953301;28;20451;-68
2022/11/18 10:24:56;;;;;;;1.20;1.10;;;;;;;15.36;59.73;93882.44;4949838;28;20515;-64
2022/11/18 10:27:32;;;;;;;3.27;2.83;;;;;;;14.92;61.00;93862.31;4944416;29;20550;-66
2022/11/18 10:30:00;;;;;;;2.57;2.37;;;;;;;15.41;59.28;93863.81;4953420;28;20879;-64
2022/11/18 10:32:27;;;;;;;8.67;3.33;;;;;;;14.88;61.32;93864.78;4943202;28;20559;-66
2022/11/18 10:34:56;;;;;;;2.30;1.83;;;;;;;15.81;58.31;93862.56;4933939;29;20519;-65
2022/11/18 10:37:26;;;;;;;6.40;4.03;;;;;;;15.53;58.63;93861.34;4934190;29;20574;-66
2022/11/18 10:40:26;;;;;;;3.90;2.83;;;;;;;15.94;58.75;93840.50;4938423;29;20817;-65
2022/11/18 10:42:53;;;;;;;4.30;2.73;;;;;;;16.12;58.22;93836.72;4952539;28;20486;-67
2022/11/18 10:45:22;;;;;;;2.27;2.17;;;;;;;16.29;57.76;93835.91;4935220;28;20550;-68
2022/11/18 10:48:15;;;;;;;5.27;3.47;;;;;;;16.50;56.55;93840.22;4944538;28;20455;-67
2022/11/18 10:50:44;;;;;;;2.03;1.90;;;;;;;16.17;57.50;93831.28;4935150;29;20440;-63
2022/11/18 10:53:35;;;;;;;6.47;4.03;;;;;;;15.45;58.62;93846.28;4933879;29;20448;-65
2022/11/18 10:56:05;;;;;;;2.37;2.07;;;;;;;16.08;57.52;93825.22;4932213;29;21028;-66
2022/11/18 10:58:41;;;;;;;5.37;2.47;;;;;;;15.66;57.85;93818.16;4944767;29;20962;-66
2022/11/18 11:01:25;;;;;;;2.77;1.77;;;;;;;16.14;57.12;93819.47;4935130;29;20476;-66
2022/11/18 11:03:59;;;;;;;2.93;2.63;;;;;;;16.03;57.72;93828.06;4947517;29;20447;-63
2022/11/18 11:06:26;;;;;;;3.93;3.53;;;;;;;16.45;57.10;93813.94;4939541;29;20814;-65
2022/11/18 11:08:56;;;;;;;4.63;3.73;;;;;;;16.02;57.36;93806.13;4953160;28;20447;-65
2022/11/18 11:11:38;;;;;;;4.73;3.93;;;;;;;16.24;57.49;93815.69;4948318;28;20447;-66
2022/11/18 11:14:08;;;;;;;1.57;1.47;;;;;;;16.49;56.43;93814.88;4933975;29;20451;-67
2022/11/18 11:16:44;;;;;;;7.60;4.73;;;;;;;16.06;56.52;93822.13;4947366;28;20571;-66
2022/11/18 11:19:13;;;;;;;4.00;3.70;;;;;;;15.82;57.31;93821.88;4933488;29;21026;-64
2022/11/18 11:21:40;;;;;;;2.03;1.70;;;;;;;16.10;57.93;93809.84;4947239;29;20516;-68
2022/11/18 11:24:11;;;;;;;1.37;1.30;;;;;;;16.19;57.94;93800.03;4945190;29;20440;-69
2022/11/18 11:26:58;;;;;;;5.00;4.07;;;;;;;16.41;57.03;93797.16;4948364;28;20497;-65
2022/11/18 11:30:04;;;;;;;3.40;3.10;;;;;;;16.39;57.76;93794.03;4946591;28;20467;-66
2022/11/18 11:32:50;;;;;;;3.67;3.37;;;;;;;16.71;56.93;93788.19;4943472;29;20455;-64
2022/11/18 11:35:36;;;;;;;3.63;3.33;;;;;;;16.27;57.68;93801.09;4946586;29;20437;-65
2022/11/18 11:38:25;;;;;;;7.13;1.83;;;;;;;16.51;57.82;93769.59;4946004;28;21047;-67
2022/11/18 11:41:33;;;;;;;0.87;0.87;;;;;;;16.18;57.95;93777.34;4941887;28;20459;-65
2022/11/18 11:44:09;;;;;;;5.23;2.93;;;;;;;16.10;58.28;93781.56;4949629;29;20514;-64
2022/11/18 11:49:55;;;;;;;2.67;2.40;;;;;;;16.68;55.82;93758.91;4945620;29;20828;-63
2022/11/18 11:52:39;;;;;;;1.00;1.00;;;;;;;16.74;56.13;93766.38;4936388;29;20482;-65
2022/11/18 11:55:32;;;;;;;1.97;1.43;;;;;;;16.53;56.51;93776.09;4941179;28;20515;-65
2022/11/18 11:58:14;;;;;;;1.37;1.30;;;;;;;16.82;56.02;93770.81;4932991;29;20810;-65
2022/11/18 12:00:51;;;;;;;6.53;0.90;;;;;;;16.81;56.40;93774.56;4946823;29;20448;-67
2022/11/18 12:03:37;;;;;;;0.63;0.63;;;;;;;17.03;56.19;93771.63;4944077;28;20460;-66
2022/11/18 12:06:08;;;;;;;1.63;1.47;;;;;;;16.96;55.75;93771.38;4932439;29;20535;-67
2022/11/18 12:08:38;;;;;;;0.60;0.60;;;;;;;16.95;56.01;93761.88;4941602;28;20483;-63
2022/11/18 12:11:20;;;;;;;4.77;1.40;;;;;;;16.89;56.38;93763.16;4951497;28;20869;-66
2022/11/18 12:13:52;;;;;;;6.83;2.27;;;;;;;16.61;57.48;93756.78;4941392;28;20459;-66
2022/11/18 12:16:37;;;;;;;0.80;0.80;;;;;;;16.55;56.92;93770.53;4945746;29;20852;-69